Time;durP1;ratioP1;P1;durP2;ratioP2;P2;SDS_P1;SDS_P2;PMS_P1;PMS_P2;Temp;Humidity;BMP_temperature;BMP_pressure;BME280_temperature;BME280_humidity;BME280_pressure;Samples;Min_cycle;Max_cycle;Signal;HPM_P1;HPM_P2
2022/10/31 00:02:23;;;;;;;58.92;31.17;;;14.60;99.90;;;;;;4972251;28;20031;-81
2022/10/31 00:04:49;;;;;;;62.10;31.35;;;14.60;99.90;;;;;;4972239;28;20022;-80
2022/10/31 00:07:15;;;;;;;66.68;33.58;;;14.60;99.90;;;;;;4973050;28;20604;-81
2022/10/31 00:09:40;;;;;;;69.40;33.33;;;14.50;99.90;;;;;;4971755;28;20031;-81
2022/10/31 00:12:06;;;;;;;73.47;32.83;;;14.50;99.90;;;;;;4972867;28;20059;-78
2022/10/31 00:14:32;;;;;;;64.53;33.25;;;14.50;99.90;;;;;;4972411;28;20021;-76
2022/10/31 00:16:57;;;;;;;74.72;34.30;;;14.50;99.90;;;;;;4972952;28;20031;-80
2022/10/31 00:19:23;;;;;;;70.38;33.88;;;14.50;99.90;;;;;;4971252;28;20040;-80
2022/10/31 00:21:51;;;;;;;73.43;35.78;;;14.40;99.90;;;;;;4973566;28;20039;-78
2022/10/31 00:24:17;;;;;;;65.43;32.85;;;14.40;99.90;;;;;;4955869;28;20035;-81
2022/10/31 00:26:43;;;;;;;67.85;32.20;;;14.30;99.90;;;;;;4971599;28;20564;-79
2022/10/31 00:29:08;;;;;;;72.57;33.65;;;14.30;99.90;;;;;;4971179;28;20028;-77
2022/10/31 00:31:34;;;;;;;63.38;34.45;;;14.30;99.90;;;;;;4971768;28;20031;-82
2022/10/31 00:33:59;;;;;;;66.43;33.13;;;14.30;99.90;;;;;;4971564;28;20060;-79
2022/10/31 00:36:25;;;;;;;66.13;33.53;;;14.30;99.90;;;;;;4973363;28;20019;-81
2022/10/31 00:38:51;;;;;;;79.22;34.47;;;14.30;99.90;;;;;;4970981;28;20094;-78
2022/10/31 00:41:17;;;;;;;73.18;33.92;;;14.30;99.90;;;;;;4971663;28;20380;-79
2022/10/31 00:43:43;;;;;;;69.20;33.42;;;14.30;99.90;;;;;;4971682;28;20039;-80
2022/10/31 00:46:10;;;;;;;71.88;35.17;;;14.30;99.90;;;;;;4970825;28;20035;-78
2022/10/31 00:48:38;;;;;;;70.88;34.47;;;14.30;99.90;;;;;;4972464;28;20035;-78
2022/10/31 00:51:05;;;;;;;82.82;35.97;;;14.30;99.90;;;;;;4970994;28;20031;-79
2022/10/31 00:53:31;;;;;;;69.22;34.40;;;14.20;99.90;;;;;;4955312;28;20057;-82
2022/10/31 00:55:57;;;;;;;77.47;35.00;;;14.20;99.90;;;;;;4972570;28;20030;-80
2022/10/31 00:58:23;;;;;;;78.03;35.67;;;14.20;99.90;;;;;;4970762;28;20074;-81
2022/10/31 01:00:55;;;;;;;80.38;36.03;;;14.10;99.90;;;;;;4973050;28;20046;-80
2022/10/31 01:03:27;;;;;;;78.80;34.20;;;14.10;99.90;;;;;;4971600;28;20062;-79
2022/10/31 01:06:01;;;;;;;83.82;34.17;;;14.10;99.90;;;;;;4971693;28;20041;-78
2022/10/31 01:08:27;;;;;;;68.95;33.67;;;14.20;99.90;;;;;;4971679;28;20086;-80
2022/10/31 01:11:12;;;;;;;75.50;35.15;;;14.10;99.90;;;;;;4971529;28;20062;-81
2022/10/31 01:13:38;;;;;;;74.57;35.95;;;14.20;99.90;;;;;;4970357;28;20045;-81
2022/10/31 01:16:06;;;;;;;67.85;35.17;;;14.10;99.90;;;;;;4970515;28;20058;-80
2022/10/31 01:18:32;;;;;;;68.93;33.10;;;14.10;99.90;;;;;;4970707;28;20037;-79
2022/10/31 01:21:07;;;;;;;62.47;33.78;;;14.10;99.90;;;;;;4970773;28;20042;-79
2022/10/31 01:23:33;;;;;;;76.13;35.35;;;14.10;99.90;;;;;;4973704;28;20029;-80
2022/10/31 01:26:05;;;;;;;69.93;32.80;;;14.10;99.90;;;;;;4975168;28;20026;-81
2022/10/31 01:28:31;;;;;;;66.43;33.05;;;14.10;99.90;;;;;;4975922;28;20365;-80
2022/10/31 01:31:01;;;;;;;66.38;33.78;;;14.00;99.90;;;;;;4973865;28;20031;-81
2022/10/31 01:33:27;;;;;;;62.10;33.45;;;14.00;99.90;;;;;;4958320;28;20050;-79
2022/10/31 01:35:52;;;;;;;75.28;33.88;;;14.00;99.90;;;;;;4973839;28;20039;-80
2022/10/31 01:38:18;;;;;;;63.28;31.15;;;14.00;99.90;;;;;;4977142;28;20035;-80
2022/10/31 01:40:44;;;;;;;66.22;34.35;;;14.00;99.90;;;;;;4975630;28;20034;-80
2022/10/31 01:43:13;;;;;;;69.65;31.95;;;13.90;99.90;;;;;;4975882;28;20083;-81
2022/10/31 01:45:40;;;;;;;62.90;31.35;;;13.80;99.90;;;;;;4976081;28;20031;-79
2022/10/31 01:48:15;;;;;;;68.97;33.72;;;13.80;99.90;;;;;;4975192;28;20031;-80
2022/10/31 01:50:43;;;;;;;66.60;34.08;;;13.80;99.90;;;;;;4974613;28;20035;-80
2022/10/31 01:53:10;;;;;;;67.13;36.00;;;13.80;99.90;;;;;;4973292;28;20038;-81
2022/10/31 01:55:41;;;;;;;66.72;32.25;;;13.80;99.90;;;;;;4974791;28;20023;-80
2022/10/31 01:58:12;;;;;;;74.85;33.90;;;13.70;99.90;;;;;;4975545;28;20043;-81
2022/10/31 02:00:41;;;;;;;65.60;31.23;;;13.70;99.90;;;;;;4974885;28;20043;-80
2022/10/31 02:03:06;;;;;;;61.00;31.95;;;13.70;99.90;;;;;;4974820;28;20027;-79
2022/10/31 02:05:33;;;;;;;65.63;31.90;;;13.70;99.90;;;;;;4973776;28;20019;-80
2022/10/31 02:08:07;;;;;;;61.38;31.90;;;13.60;99.90;;;;;;4957378;28;20046;-80
2022/10/31 02:10:35;;;;;;;58.17;29.92;;;13.60;99.90;;;;;;4974974;28;20038;-81
2022/10/31 02:13:05;;;;;;;59.03;31.17;;;13.50;99.90;;;;;;4974237;28;20074;-80
2022/10/31 02:15:32;;;;;;;59.63;30.63;;;13.40;99.90;;;;;;4975966;28;20026;-81
2022/10/31 02:17:59;;;;;;;62.78;32.75;;;13.40;99.90;;;;;;4974038;28;20031;-81
2022/10/31 02:20:31;;;;;;;61.22;29.35;;;13.40;99.90;;;;;;4975189;28;20122;-80
2022/10/31 02:23:38;;;;;;;67.13;30.00;;;13.40;99.90;;;;;;4973494;28;20030;-82
2022/10/31 02:26:09;;;;;;;57.83;29.88;;;13.40;99.90;;;;;;4974142;28;20031;-80
2022/10/31 02:28:56;;;;;;;62.60;29.33;;;13.30;99.90;;;;;;4973672;28;20082;-80
2022/10/31 02:31:47;;;;;;;54.10;25.33;;;13.30;99.90;;;;;;4973584;28;20038;-81
2022/10/31 02:34:19;;;;;;;44.72;24.75;;;13.20;99.90;;;;;;4975734;28;20043;-80
2022/10/31 02:36:53;;;;;;;49.47;25.33;;;13.20;99.90;;;;;;4973195;28;20019;-80
2022/10/31 02:39:27;;;;;;;52.85;25.88;;;13.10;99.90;;;;;;4973654;28;20342;-78
2022/10/31 02:41:53;;;;;;;;;;;13.00;99.90;;;;;;4975473;28;20054;-80
2022/10/31 02:44:35;;;;;;;51.33;25.70;;;13.00;99.90;;;;;;4989080;28;19910;-80
2022/10/31 02:47:08;;;;;;;50.08;27.85;;;12.90;99.90;;;;;;4975279;28;20023;-81
2022/10/31 02:49:40;;;;;;;58.20;28.23;;;12.90;99.90;;;;;;4974251;28;20086;-78
2022/10/31 02:52:18;;;;;;;42.33;23.58;;;12.90;99.90;;;;;;4974819;28;20031;-80
2022/10/31 02:54:46;;;;;;;59.33;25.92;;;12.90;99.90;;;;;;4973428;28;20045;-79
2022/10/31 02:57:15;;;;;;;48.97;25.23;;;12.90;99.90;;;;;;4973686;28;20540;-79
2022/10/31 02:59:47;;;;;;;50.97;26.55;;;12.80;99.90;;;;;;4974461;28;20051;-79
2022/10/31 03:02:32;;;;;;;47.50;25.33;;;12.80;99.90;;;;;;4989542;28;20026;-80
2022/10/31 03:05:14;;;;;;;43.58;23.65;;;12.80;99.90;;;;;;4975119;28;20088;-80
2022/10/31 03:08:18;;;;;;;43.53;23.77;;;12.70;99.90;;;;;;4973011;28;20034;-81
2022/10/31 03:10:55;;;;;;;40.47;23.17;;;12.70;99.90;;;;;;4972312;28;20038;-79
2022/10/31 03:13:21;;;;;;;39.95;22.10;;;12.70;99.90;;;;;;4972684;28;20129;-79
2022/10/31 03:15:51;;;;;;;71.38;29.08;;;12.70;99.90;;;;;;4973453;28;20058;-79
2022/10/31 03:18:24;;;;;;;53.33;27.13;;;12.80;99.90;;;;;;4972275;28;20034;-79
2022/10/31 03:21:16;;;;;;;130.68;32.90;;;12.90;99.90;;;;;;4973945;28;20161;-78
2022/10/31 03:23:45;;;;;;;71.03;32.72;;;12.90;99.90;;;;;;4972260;28;20027;-78
2022/10/31 03:26:12;;;;;;;64.30;29.23;;;12.90;99.90;;;;;;4971502;28;20053;-79
2022/10/31 03:28:48;;;;;;;149.52;31.75;;;13.00;99.90;;;;;;4972689;28;20035;-81
2022/10/31 03:31:18;;;;;;;66.88;31.52;;;13.00;99.90;;;;;;4974266;28;20031;-80
2022/10/31 03:33:45;;;;;;;90.05;30.73;;;13.10;99.90;;;;;;4973319;28;20047;-78
2022/10/31 03:36:13;;;;;;;83.70;32.88;;;13.10;99.90;;;;;;4972476;28;20023;-79
2022/10/31 03:38:41;;;;;;;220.95;31.92;;;13.10;99.90;;;;;;4971535;28;20034;-80
2022/10/31 03:41:13;;;;;;;179.20;31.00;;;13.10;99.90;;;;;;4973879;28;20034;-79
2022/10/31 03:43:46;;;;;;;256.08;30.55;;;13.10;99.90;;;;;;4973490;28;20043;-79
2022/10/31 03:46:11;;;;;;;261.20;29.38;;;13.10;99.90;;;;;;4972595;28;20023;-77
2022/10/31 03:48:38;;;;;;;176.68;28.25;;;13.10;99.90;;;;;;4971438;28;20064;-78
2022/10/31 03:51:23;;;;;;;285.88;31.42;;;13.10;99.90;;;;;;4956490;28;20027;-78
2022/10/31 03:54:06;;;;;;;286.25;31.20;;;13.10;99.90;;;;;;4972206;28;20475;-79
2022/10/31 03:56:43;;;;;;;252.77;30.92;;;13.00;99.90;;;;;;4972863;28;20018;-81
2022/10/31 03:59:23;;;;;;;155.13;30.90;;;13.00;99.90;;;;;;4972382;28;20079;-80
2022/10/31 04:01:53;;;;;;;153.20;30.33;;;13.00;99.90;;;;;;4973519;28;20019;-80
2022/10/31 04:04:19;;;;;;;284.48;32.70;;;13.00;99.90;;;;;;4971993;28;20023;-75
2022/10/31 04:06:46;;;;;;;254.82;32.40;;;13.00;99.90;;;;;;4971658;28;20106;-78
2022/10/31 04:09:13;;;;;;;274.75;30.33;;;13.00;99.90;;;;;;4974321;28;20035;-78
2022/10/31 04:11:50;;;;;;;233.43;30.75;;;13.00;99.90;;;;;;4972031;28;20046;-79
2022/10/31 04:14:15;;;;;;;198.73;29.13;;;13.00;99.90;;;;;;4971456;28;20050;-79
2022/10/31 04:16:43;;;;;;;303.05;33.95;;;13.00;99.90;;;;;;4972110;28;20054;-80
2022/10/31 04:19:10;;;;;;;230.32;32.35;;;12.90;99.90;;;;;;4972295;28;20019;-79
2022/10/31 04:21:43;;;;;;;248.88;33.25;;;12.90;99.90;;;;;;4971295;28;20038;-80
2022/10/31 04:24:09;;;;;;;259.55;31.60;;;12.90;99.90;;;;;;4973058;28;20026;-79
2022/10/31 04:26:34;;;;;;;124.68;31.10;;;12.90;99.90;;;;;;4972472;28;20035;-81
2022/10/31 04:29:00;;;;;;;155.77;32.00;;;12.80;99.90;;;;;;4973213;28;20034;-77
2022/10/31 04:31:26;;;;;;;101.30;30.50;;;12.80;99.90;;;;;;4956469;28;20078;-78
2022/10/31 04:33:51;;;;;;;196.80;32.63;;;12.80;99.90;;;;;;4973099;28;20039;-78
2022/10/31 04:36:17;;;;;;;233.30;33.05;;;12.80;99.90;;;;;;4972949;28;20027;-79
2022/10/31 04:38:43;;;;;;;100.10;29.35;;;12.80;99.90;;;;;;4970731;28;20016;-79
2022/10/31 04:41:08;;;;;;;162.15;30.45;;;12.80;99.90;;;;;;4970816;28;20018;-79
2022/10/31 04:43:34;;;;;;;174.93;29.10;;;12.80;99.90;;;;;;4973494;28;20035;-77
2022/10/31 04:45:59;;;;;;;184.60;30.17;;;12.80;99.90;;;;;;4971849;28;20054;-81
2022/10/31 04:48:25;;;;;;;298.80;31.17;;;12.70;99.90;;;;;;4973011;28;20139;-79
2022/10/31 04:50:51;;;;;;;246.90;31.50;;;12.80;99.90;;;;;;4971649;28;20026;-79
2022/10/31 04:53:16;;;;;;;194.73;29.98;;;12.80;99.90;;;;;;4969199;28;20483;-78
2022/10/31 04:55:42;;;;;;;245.38;28.73;;;12.70;99.90;;;;;;4972876;28;20027;-79
2022/10/31 04:58:08;;;;;;;172.43;26.00;;;12.70;99.90;;;;;;4969152;28;20058;-77
2022/10/31 05:00:33;;;;;;;157.00;27.83;;;12.70;99.90;;;;;;4957258;29;20019;-79
2022/10/31 05:02:59;;;;;;;174.38;25.92;;;12.70;99.90;;;;;;4957201;29;20035;-80
2022/10/31 05:05:29;;;;;;;213.57;27.88;;;12.60;99.90;;;;;;4956525;29;20031;-80
2022/10/31 05:07:55;;;;;;;116.28;24.60;;;12.60;99.90;;;;;;4958003;29;20019;-80
2022/10/31 05:10:23;;;;;;;63.90;28.35;;;12.60;99.90;;;;;;4955595;29;20038;-79
2022/10/31 05:12:52;;;;;;;61.63;28.05;;;12.60;99.90;;;;;;4956592;29;20035;-80
2022/10/31 05:15:21;;;;;;;305.67;28.05;;;12.60;99.90;;;;;;4954716;29;20087;-80
2022/10/31 05:17:46;;;;;;;258.92;27.35;;;12.60;99.90;;;;;;4955561;29;20035;-80
2022/10/31 05:20:14;;;;;;;519.45;29.50;;;12.60;99.90;;;;;;4955196;29;20062;-78
2022/10/31 05:22:51;;;;;;;390.80;29.13;;;12.50;99.90;;;;;;4957221;29;20058;-78
2022/10/31 05:25:18;;;;;;;298.40;27.02;;;12.50;99.90;;;;;;4956108;29;20477;-79
2022/10/31 05:27:47;;;;;;;393.77;26.83;;;12.50;99.90;;;;;;4955250;29;20035;-81
2022/10/31 05:30:15;;;;;;;447.15;27.55;;;12.50;99.90;;;;;;4955593;29;20027;-78
2022/10/31 05:32:43;;;;;;;230.02;24.27;;;12.40;99.90;;;;;;4956270;29;20036;-78
2022/10/31 05:35:11;;;;;;;248.75;24.58;;;12.40;99.90;;;;;;4957299;29;20047;-78
2022/10/31 05:37:37;;;;;;;279.10;26.05;;;12.40;99.90;;;;;;4956832;29;20036;-80
2022/10/31 05:40:04;;;;;;;228.27;25.15;;;12.30;99.90;;;;;;4955686;29;20106;-79
2022/10/31 05:42:30;;;;;;;194.52;25.67;;;12.30;99.90;;;;;;4956329;29;20034;-80
2022/10/31 05:44:57;;;;;;;273.80;25.38;;;12.30;99.90;;;;;;4955736;29;20031;-80
2022/10/31 05:47:24;;;;;;;165.23;24.98;;;12.20;99.90;;;;;;4957210;29;20023;-80
2022/10/31 05:49:51;;;;;;;279.25;26.20;;;12.20;99.90;;;;;;4955702;29;20015;-79
2022/10/31 05:52:17;;;;;;;297.35;26.05;;;12.20;99.90;;;;;;4954386;29;20031;-78
2022/10/31 05:54:43;;;;;;;73.82;27.02;;;12.10;99.90;;;;;;4955632;29;20020;-79
2022/10/31 05:57:08;;;;;;;263.13;26.90;;;12.10;99.90;;;;;;4954740;29;20031;-79
2022/10/31 05:59:34;;;;;;;119.15;24.38;;;12.10;99.90;;;;;;4953848;29;20056;-78
2022/10/31 06:02:00;;;;;;;169.00;24.25;;;12.10;99.90;;;;;;4955226;29;20027;-78
2022/10/31 06:04:27;;;;;;;76.20;24.35;;;12.00;99.90;;;;;;4955076;29;20035;-80
2022/10/31 06:06:57;;;;;;;44.65;23.50;;;12.00;99.90;;;;;;4956715;28;20042;-78
2022/10/31 06:09:25;;;;;;;59.33;24.75;;;12.00;99.90;;;;;;4957028;29;20437;-85
2022/10/31 06:11:53;;;;;;;120.53;25.13;;;12.00;99.90;;;;;;4961427;29;20091;-86
2022/10/31 06:14:24;;;;;;;57.00;25.70;;;11.90;99.90;;;;;;4961323;29;20039;-86
2022/10/31 06:16:51;;;;;;;91.03;25.00;;;11.90;99.90;;;;;;4956814;29;20024;-87
2022/10/31 06:19:17;;;;;;;84.05;24.40;;;11.90;99.90;;;;;;4959072;29;20484;-88
2022/10/31 06:21:42;;;;;;;106.28;25.90;;;11.90;99.90;;;;;;4956627;29;20031;-86
2022/10/31 06:24:08;;;;;;;125.05;25.42;;;11.80;99.90;;;;;;4955795;29;20087;-84
2022/10/31 06:26:33;;;;;;;79.65;26.52;;;11.80;99.90;;;;;;4953286;29;20020;-87
2022/10/31 06:29:17;;;;;;;68.88;25.27;;;11.80;99.90;;;;;;4957566;29;20292;-86
2022/10/31 06:32:12;;;;;;;71.90;25.67;;;11.80;99.90;;;;;;4956493;29;20114;-86
2022/10/31 06:35:07;;;;;;;52.63;24.73;;;11.80;99.90;;;;;;4957017;29;20043;-85
2022/10/31 06:37:32;;;;;;;43.05;23.02;;;11.80;99.90;;;;;;4940063;29;20042;-84
2022/10/31 06:39:58;;;;;;;58.22;25.35;;;11.70;99.90;;;;;;4955630;29;20028;-84
2022/10/31 06:42:24;;;;;;;57.10;23.70;;;11.70;99.90;;;;;;4956006;29;20034;-84
2022/10/31 06:44:49;;;;;;;46.45;25.42;;;11.70;99.90;;;;;;4955916;29;20939;-84
2022/10/31 06:47:15;;;;;;;50.08;26.05;;;11.70;99.90;;;;;;4957510;29;21453;-84
2022/10/31 06:49:40;;;;;;;51.95;24.73;;;11.70;99.90;;;;;;4940019;29;20052;-84
2022/10/31 06:52:06;;;;;;;51.70;24.67;;;11.60;99.90;;;;;;4954598;29;20032;-81
2022/10/31 06:54:32;;;;;;;64.57;25.52;;;11.60;99.90;;;;;;4936771;29;20058;-84
2022/10/31 06:56:58;;;;;;;57.33;25.85;;;11.60;99.90;;;;;;4957581;29;20059;-82
2022/10/31 06:59:24;;;;;;;50.25;25.45;;;11.60;99.90;;;;;;4984287;28;20079;-82
2022/10/31 07:01:50;;;;;;;40.65;23.67;;;11.60;99.90;;;;;;4990205;28;20027;-81
2022/10/31 07:04:16;;;;;;;63.85;25.98;;;11.60;99.90;;;;;;4989635;28;20130;-82
2022/10/31 07:06:41;;;;;;;83.13;27.00;;;11.60;99.90;;;;;;4990108;28;20027;-82
2022/10/31 07:09:10;;;;;;;43.10;24.80;;;11.50;99.90;;;;;;4991415;28;20042;-83
2022/10/31 07:11:36;;;;;;;51.67;25.52;;;11.50;99.90;;;;;;4974369;28;20035;-83
2022/10/31 07:14:02;;;;;;;49.00;25.48;;;11.50;99.90;;;;;;4976502;28;20055;-82
2022/10/31 07:16:27;;;;;;;47.80;25.10;;;11.50;99.90;;;;;;4991508;28;20027;-81
2022/10/31 07:18:53;;;;;;;42.55;24.95;;;11.50;99.90;;;;;;4973300;28;20030;-83
2022/10/31 07:21:19;;;;;;;57.00;24.95;;;11.50;99.90;;;;;;4986798;28;20095;-83
2022/10/31 07:23:47;;;;;;;77.63;26.05;;;11.50;99.90;;;;;;4988259;28;20042;-83
2022/10/31 07:26:13;;;;;;;43.60;24.58;;;11.50;99.90;;;;;;4974390;28;21053;-81
2022/10/31 07:28:38;;;;;;;44.28;24.77;;;11.60;99.90;;;;;;4988182;28;20027;-81
2022/10/31 07:31:05;;;;;;;94.25;27.90;;;11.50;99.90;;;;;;4990183;28;20023;-83
2022/10/31 07:33:31;;;;;;;171.63;28.13;;;11.60;99.90;;;;;;4991207;28;20044;-82
2022/10/31 07:35:57;;;;;;;135.10;26.88;;;11.60;99.90;;;;;;4990327;28;20035;-82
2022/10/31 07:38:24;;;;;;;50.05;27.25;;;11.60;99.90;;;;;;4988549;28;20031;-80
2022/10/31 07:40:52;;;;;;;66.40;24.90;;;11.60;99.90;;;;;;4991172;28;20030;-82
2022/10/31 07:43:19;;;;;;;126.10;24.35;;;11.70;99.90;;;;;;4988471;28;20027;-80
2022/10/31 07:45:49;;;;;;;214.40;26.15;;;11.70;99.90;;;;;;4989933;28;20066;-84
2022/10/31 07:48:15;;;;;;;212.68;26.17;;;11.60;99.90;;;;;;4989875;28;20058;-80
2022/10/31 07:50:40;;;;;;;224.10;26.73;;;11.60;99.90;;;;;;4987633;28;20031;-81
2022/10/31 07:53:11;;;;;;;83.75;26.52;;;11.60;99.90;;;;;;4973132;28;20124;-80
2022/10/31 07:55:37;;;;;;;50.75;25.90;;;11.60;99.90;;;;;;4988435;28;20027;-81
2022/10/31 07:58:14;;;;;;;421.80;27.60;;;11.60;99.90;;;;;;4987934;28;20047;-82
2022/10/31 08:00:43;;;;;;;107.88;25.65;;;11.60;99.90;;;;;;4973152;28;20050;-82
2022/10/31 08:03:12;;;;;;;83.68;23.77;;;11.70;99.90;;;;;;4988453;28;20050;-81
2022/10/31 08:05:38;;;;;;;154.93;24.13;;;11.70;99.90;;;;;;4988813;28;20031;-81
2022/10/31 08:08:05;;;;;;;57.80;23.52;;;11.70;99.90;;;;;;4986210;28;20045;-81
2022/10/31 08:10:32;;;;;;;112.38;24.88;;;11.80;99.90;;;;;;4985635;28;20023;-80
2022/10/31 08:13:03;;;;;;;85.32;24.10;;;11.80;99.90;;;;;;4986313;28;20031;-80
2022/10/31 08:15:29;;;;;;;40.58;22.58;;;11.80;99.90;;;;;;4987805;28;20047;-81
2022/10/31 08:17:55;;;;;;;48.90;24.77;;;11.80;99.90;;;;;;4978342;28;20035;-80
2022/10/31 08:20:22;;;;;;;51.70;24.30;;;11.80;99.90;;;;;;4976172;28;20022;-82
2022/10/31 08:22:59;;;;;;;76.88;25.42;;;11.90;99.90;;;;;;4986371;28;20037;-81
2022/10/31 08:25:26;;;;;;;112.53;24.35;;;11.90;99.90;;;;;;4971742;28;20022;-80
2022/10/31 08:27:55;;;;;;;60.38;26.25;;;11.90;99.90;;;;;;4985150;28;20023;-81
2022/10/31 08:30:24;;;;;;;44.08;22.92;;;12.00;99.90;;;;;;4984941;28;20606;-80
2022/10/31 08:33:13;;;;;;;192.98;25.13;;;12.00;99.90;;;;;;4983244;28;20212;-82
2022/10/31 08:35:39;;;;;;;166.63;26.65;;;12.00;99.90;;;;;;4986047;28;20031;-82
2022/10/31 08:38:05;;;;;;;100.85;27.83;;;12.00;99.90;;;;;;4989605;28;20027;-81
2022/10/31 08:40:32;;;;;;;66.55;28.30;;;12.00;99.90;;;;;;4986717;28;20070;-81
2022/10/31 08:43:05;;;;;;;63.20;28.42;;;12.00;99.90;;;;;;4972422;28;20034;-82
2022/10/31 08:45:32;;;;;;;58.90;27.45;;;12.00;99.90;;;;;;4986612;28;20576;-83
2022/10/31 08:48:00;;;;;;;244.23;27.58;;;12.10;99.90;;;;;;4990348;28;20487;-83
2022/10/31 08:50:26;;;;;;;316.98;29.30;;;12.10;99.90;;;;;;4990356;28;20035;-83
2022/10/31 08:52:52;;;;;;;94.05;26.85;;;12.10;99.90;;;;;;4989744;28;20077;-80
2022/10/31 08:55:17;;;;;;;88.20;27.55;;;12.10;99.90;;;;;;4988303;28;20031;-83
2022/10/31 08:57:43;;;;;;;52.60;28.20;;;12.20;99.90;;;;;;4986505;28;20051;-82
2022/10/31 09:00:09;;;;;;;108.28;29.27;;;12.20;99.90;;;;;;4987370;28;20023;-83
2022/10/31 09:02:36;;;;;;;316.92;29.40;;;12.30;99.90;;;;;;4989140;28;20035;-83
2022/10/31 09:05:02;;;;;;;71.53;29.08;;;12.30;99.90;;;;;;4989289;28;20032;-83
2022/10/31 09:07:28;;;;;;;229.60;32.30;;;12.30;99.90;;;;;;4983626;28;20019;-82
2022/10/31 09:09:56;;;;;;;271.33;29.80;;;12.30;99.90;;;;;;4989835;28;20027;-83
2022/10/31 09:12:23;;;;;;;546.70;31.08;;;12.40;99.90;;;;;;4990148;28;20148;-86
2022/10/31 09:15:11;;;;;;;258.63;27.98;;;12.30;99.90;;;;;;4983177;28;20096;-82
2022/10/31 09:17:37;;;;;;;402.58;30.52;;;12.30;99.90;;;;;;4990313;28;20031;-85
2022/10/31 09:20:03;;;;;;;488.02;30.73;;;12.30;99.90;;;;;;4988426;28;20023;-84
2022/10/31 09:22:28;;;;;;;447.27;31.40;;;12.30;99.90;;;;;;4990256;28;20034;-83
2022/10/31 09:25:00;;;;;;;580.63;33.72;;;12.30;99.90;;;;;;4972915;28;20077;-86
2022/10/31 09:27:26;;;;;;;396.60;30.60;;;12.20;99.90;;;;;;4974793;28;20039;-84
2022/10/31 09:29:52;;;;;;;409.27;32.90;;;12.20;99.90;;;;;;4988001;28;20030;-85
2022/10/31 09:32:17;;;;;;;163.63;34.30;;;12.20;99.90;;;;;;4974172;28;20027;-82
2022/10/31 09:34:43;;;;;;;437.40;35.38;;;12.20;99.90;;;;;;4987561;28;20079;-84
2022/10/31 09:37:09;;;;;;;629.50;36.55;;;12.20;99.90;;;;;;4989036;28;20122;-84
2022/10/31 09:39:34;;;;;;;514.13;35.67;;;12.10;99.90;;;;;;4989056;28;20051;-85
2022/10/31 09:42:15;;;;;;;89.72;34.70;;;12.10;99.90;;;;;;4988138;28;20031;-86
2022/10/31 09:44:58;;;;;;;94.75;34.25;;;12.10;99.90;;;;;;4991012;28;20023;-85
2022/10/31 09:47:46;;;;;;;100.90;38.80;;;12.20;99.90;;;;;;4992244;28;20038;-85
2022/10/31 09:50:20;;;;;;;83.45;37.60;;;12.30;99.90;;;;;;4975996;28;20039;-85
2022/10/31 09:53:12;;;;;;;447.90;38.08;;;12.40;99.90;;;;;;4991971;28;20043;-86
2022/10/31 09:55:50;;;;;;;96.80;38.17;;;12.40;99.90;;;;;;4974827;28;20034;-86
2022/10/31 09:58:28;;;;;;;94.47;33.88;;;12.50;99.90;;;;;;4980654;28;20047;-86
2022/10/31 10:00:58;;;;;;;95.38;35.47;;;12.50;99.90;;;;;;4957084;29;20054;-84
2022/10/31 10:03:45;;;;;;;264.80;40.60;;;12.40;99.90;;;;;;4958270;29;20110;-86
2022/10/31 10:06:17;;;;;;;129.60;39.30;;;12.50;99.90;;;;;;4955295;29;20024;-85
2022/10/31 10:08:42;;;;;;;92.28;35.50;;;12.60;99.90;;;;;;4957359;29;20027;-85
2022/10/31 10:11:17;;;;;;;106.35;38.42;;;12.60;99.90;;;;;;4956574;29;20058;-87
2022/10/31 10:14:34;;;;;;;84.70;36.53;;;12.60;99.90;;;;;;4954733;29;20070;-88
2022/10/31 10:17:41;;;;;;;75.50;34.92;;;12.60;99.90;;;;;;4928714;29;20043;-87
2022/10/31 10:20:36;;;;;;;328.55;32.55;;;12.70;99.90;;;;;;4955402;29;20031;-82
2022/10/31 10:23:08;;;;;;;232.80;31.15;;;12.80;99.90;;;;;;4956477;29;20054;-85
2022/10/31 10:25:42;;;;;;;128.73;29.48;;;12.80;99.90;;;;;;4958392;29;20027;-87
2022/10/31 10:28:22;;;;;;;347.58;30.77;;;12.90;99.90;;;;;;4956494;29;20027;-84
2022/10/31 10:30:51;;;;;;;162.60;28.80;;;12.90;99.90;;;;;;4955335;29;20019;-85
2022/10/31 10:33:37;;;;;;;132.32;26.15;;;13.00;99.90;;;;;;4956603;29;20400;-82
2022/10/31 10:36:14;;;;;;;301.73;28.73;;;13.00;99.90;;;;;;4954607;29;20039;-85
2022/10/31 10:38:45;;;;;;;155.00;28.08;;;13.00;99.90;;;;;;4954276;29;20031;-86
2022/10/31 10:41:22;;;;;;;166.73;31.83;;;13.00;99.90;;;;;;4954490;29;20521;-85
2022/10/31 10:43:54;;;;;;;69.95;30.67;;;13.00;99.90;;;;;;4956787;29;20080;-85
2022/10/31 10:49:52;;;;;;;240.60;31.08;;;13.00;99.90;;;;;;4957802;29;20042;-83
2022/10/31 10:52:53;;;;;;;122.85;28.95;;;13.00;99.90;;;;;;4954406;29;20035;-86
2022/10/31 10:55:24;;;;;;;75.13;27.90;;;13.10;99.90;;;;;;4955238;29;20031;-86
2022/10/31 10:58:00;;;;;;;75.28;33.25;;;13.10;99.90;;;;;;4962182;28;20507;-86
2022/10/31 11:00:30;;;;;;;65.28;32.08;;;13.10;99.90;;;;;;4978038;28;20079;-86
2022/10/31 11:02:56;;;;;;;92.35;33.22;;;13.20;99.90;;;;;;4979291;28;20030;-87
2022/10/31 11:05:39;;;;;;;203.60;32.15;;;13.20;99.90;;;;;;4974361;28;20434;-86
2022/10/31 11:08:05;;;;;;;135.45;31.55;;;13.30;99.90;;;;;;4976378;28;20027;-83
2022/10/31 11:10:33;;;;;;;65.85;32.05;;;13.30;99.90;;;;;;4976334;28;20027;-85
2022/10/31 11:13:04;;;;;;;83.32;32.35;;;13.30;99.90;;;;;;4975055;28;20042;-84
2022/10/31 11:15:34;;;;;;;174.75;32.28;;;13.30;99.90;;;;;;4974668;28;20027;-82
2022/10/31 11:18:01;;;;;;;69.53;34.10;;;13.40;99.90;;;;;;4974511;28;20042;-84
2022/10/31 11:20:35;;;;;;;149.15;38.10;;;13.50;99.90;;;;;;4973105;28;20206;-82
2022/10/31 11:23:03;;;;;;;;;;;13.60;99.90;;;;;;4975083;28;20027;-82
2022/10/31 11:25:29;;;;;;;79.32;34.97;;;13.70;99.90;;;;;;4974629;28;19906;-83
2022/10/31 11:28:08;;;;;;;71.50;34.30;;;13.80;99.90;;;;;;4973249;28;20031;-82
2022/10/31 11:30:46;;;;;;;75.80;37.50;;;13.80;99.90;;;;;;4956430;28;20102;-85
2022/10/31 11:33:37;;;;;;;75.07;36.13;;;13.80;99.90;;;;;;4973750;28;20038;-84
2022/10/31 11:36:24;;;;;;;75.80;37.25;;;13.80;99.90;;;;;;4955257;28;20055;-84
2022/10/31 11:38:51;;;;;;;68.40;36.53;;;13.90;99.90;;;;;;4956094;28;20058;-83
2022/10/31 11:41:38;;;;;;;56.95;33.45;;;14.00;99.90;;;;;;4971698;28;20046;-83
2022/10/31 11:44:11;;;;;;;71.68;35.97;;;14.10;99.90;;;;;;4974313;28;20027;-82
2022/10/31 11:46:40;;;;;;;68.70;38.03;;;14.10;99.90;;;;;;4973603;28;20025;-82
2022/10/31 11:49:15;;;;;;;74.10;38.25;;;14.30;99.90;;;;;;4971639;28;20766;-79
2022/10/31 11:51:41;;;;;;;67.90;34.58;;;14.50;99.90;;;;;;4971178;28;20030;-81
2022/10/31 11:54:28;;;;;;;69.93;37.78;;;14.70;99.90;;;;;;4971155;28;20039;-83
2022/10/31 11:56:54;;;;;;;62.97;34.13;;;14.70;99.90;;;;;;4974269;28;20027;-82
2022/10/31 11:59:31;;;;;;;71.82;36.40;;;14.80;99.90;;;;;;4970404;28;20066;-81
2022/10/31 12:01:59;;;;;;;65.28;35.75;;;14.80;99.90;;;;;;4972110;28;20091;-80
2022/10/31 12:04:38;;;;;;;59.53;32.95;;;14.90;99.90;;;;;;4971491;28;20023;-79
2022/10/31 12:07:04;;;;;;;65.40;35.78;;;14.90;99.90;;;;;;4971345;28;20062;-81
2022/10/31 12:09:33;;;;;;;69.00;35.67;;;15.00;99.90;;;;;;4971880;28;20472;-79
2022/10/31 12:12:20;;;;;;;64.28;34.65;;;14.90;99.90;;;;;;4973822;28;20120;-81
2022/10/31 12:15:11;;;;;;;59.00;33.83;;;14.90;99.90;;;;;;4972423;28;20041;-84
2022/10/31 12:17:49;;;;;;;64.53;33.85;;;15.00;99.90;;;;;;4973516;28;20029;-82
2022/10/31 12:20:28;;;;;;;64.65;35.45;;;15.10;99.90;;;;;;4970251;28;20403;-81
2022/10/31 12:23:09;;;;;;;60.83;33.22;;;15.20;99.90;;;;;;4972195;28;20031;-84
2022/10/31 12:25:44;;;;;;;65.35;35.08;;;15.40;99.90;;;;;;4971969;28;20031;-82
2022/10/31 12:28:34;;;;;;;56.67;32.83;;;15.70;99.90;;;;;;4971686;28;20018;-79
2022/10/31 12:31:26;;;;;;;63.92;35.22;;;16.00;99.90;;;;;;4970219;28;20049;-81
2022/10/31 12:34:21;;;;;;;49.08;26.15;;;16.40;99.90;;;;;;4972507;28;20039;-79
2022/10/31 12:37:03;;;;;;;45.38;27.15;;;16.60;99.90;;;;;;4969324;28;20691;-76
2022/10/31 12:39:41;;;;;;;42.63;25.88;;;16.40;99.90;;;;;;4984813;28;20049;-79
2022/10/31 12:42:22;;;;;;;52.50;28.00;;;16.10;99.90;;;;;;4985258;28;20049;-81
2022/10/31 12:44:50;;;;;;;55.92;29.00;;;15.80;99.90;;;;;;4973115;28;20032;-79
2022/10/31 12:47:50;;;;;;;56.47;26.70;;;15.60;99.90;;;;;;4972027;28;20054;-77